sensor_id;sensor_type;location;lat;lon;timestamp;temperature;humidity
10390;DHT22;5241;47.830;12.972;2024-01-30T00:01:22;-1.80;99.90
10390;DHT22;5241;47.830;12.972;2024-01-30T00:03:48;-1.70;99.90
10390;DHT22;5241;47.830;12.972;2024-01-30T00:06:13;-1.70;99.90
10390;DHT22;5241;47.830;12.972;2024-01-30T00:08:39;-1.70;99.90
10390;DHT22;5241;47.830;12.972;2024-01-30T00:11:04;-1.80;99.90
10390;DHT22;5241;47.830;12.972;2024-01-30T00:13:30;-1.80;99.90
10390;DHT22;5241;47.830;12.972;2024-01-30T00:15:56;-1.70;99.90
10390;DHT22;5241;47.830;12.972;2024-01-30T00:18:21;-1.70;99.90
10390;DHT22;5241;47.830;12.972;2024-01-30T00:20:47;-1.80;99.90
10390;DHT22;5241;47.830;12.972;2024-01-30T00:23:13;-1.70;99.90
10390;DHT22;5241;47.830;12.972;2024-01-30T00:25:38;-1.70;99.90
10390;DHT22;5241;47.830;12.972;2024-01-30T00:28:04;-1.80;99.90
10390;DHT22;5241;47.830;12.972;2024-01-30T00:30:29;-1.80;99.90
10390;DHT22;5241;47.830;12.972;2024-01-30T00:32:55;-1.80;99.90
10390;DHT22;5241;47.830;12.972;2024-01-30T00:35:20;-1.60;99.90
10390;DHT22;5241;47.830;12.972;2024-01-30T00:37:48;-1.70;99.90
10390;DHT22;5241;47.830;12.972;2024-01-30T00:40:13;-1.60;99.90
10390;DHT22;5241;47.830;12.972;2024-01-30T00:42:42;-1.70;99.90
10390;DHT22;5241;47.830;12.972;2024-01-30T00:45:15;-1.70;99.90
10390;DHT22;5241;47.830;12.972;2024-01-30T00:47:41;-1.70;99.90
10390;DHT22;5241;47.830;12.972;2024-01-30T00:50:07;-1.70;99.90
10390;DHT22;5241;47.830;12.972;2024-01-30T00:52:32;-1.80;99.90
10390;DHT22;5241;47.830;12.972;2024-01-30T00:54:59;-1.70;99.90
10390;DHT22;5241;47.830;12.972;2024-01-30T00:57:24;-1.80;99.90
10390;DHT22;5241;47.830;12.972;2024-01-30T00:59:50;-1.80;99.90
10390;DHT22;5241;47.830;12.972;2024-01-30T01:02:15;-1.80;99.90
10390;DHT22;5241;47.830;12.972;2024-01-30T01:04:43;-2.00;99.90
10390;DHT22;5241;47.830;12.972;2024-01-30T01:07:09;-2.10;99.90
10390;DHT22;5241;47.830;12.972;2024-01-30T01:09:35;-2.20;99.90
10390;DHT22;5241;47.830;12.972;2024-01-30T01:12:02;-2.20;99.90
10390;DHT22;5241;47.830;12.972;2024-01-30T01:14:27;-2.20;99.90
10390;DHT22;5241;47.830;12.972;2024-01-30T01:16:53;-2.30;99.90
10390;DHT22;5241;47.830;12.972;2024-01-30T01:19:18;-2.20;99.90
10390;DHT22;5241;47.830;12.972;2024-01-30T01:21:44;-2.20;99.90
10390;DHT22;5241;47.830;12.972;2024-01-30T01:24:09;-2.30;99.90
10390;DHT22;5241;47.830;12.972;2024-01-30T01:26:35;-2.40;99.90
10390;DHT22;5241;47.830;12.972;2024-01-30T01:29:00;-2.40;99.90
10390;DHT22;5241;47.830;12.972;2024-01-30T01:31:26;-2.30;99.90
10390;DHT22;5241;47.830;12.972;2024-01-30T01:33:55;-2.40;99.90
10390;DHT22;5241;47.830;12.972;2024-01-30T01:36:20;-2.30;99.90
10390;DHT22;5241;47.830;12.972;2024-01-30T01:38:46;-2.40;99.90
10390;DHT22;5241;47.830;12.972;2024-01-30T01:41:11;-2.50;99.90
10390;DHT22;5241;47.830;12.972;2024-01-30T01:43:37;-2.50;99.90
10390;DHT22;5241;47.830;12.972;2024-01-30T01:46:05;-2.50;99.90
10390;DHT22;5241;47.830;12.972;2024-01-30T01:48:30;-2.50;99.90
10390;DHT22;5241;47.830;12.972;2024-01-30T01:50:57;-2.50;99.90
10390;DHT22;5241;47.830;12.972;2024-01-30T01:53:22;-2.60;99.90
10390;DHT22;5241;47.830;12.972;2024-01-30T01:55:48;-2.60;99.90
10390;DHT22;5241;47.830;12.972;2024-01-30T01:58:14;-2.60;99.90
10390;DHT22;5241;47.830;12.972;2024-01-30T02:00:41;-2.60;99.90
10390;DHT22;5241;47.830;12.972;2024-01-30T02:03:10;-2.60;99.90
10390;DHT22;5241;47.830;12.972;2024-01-30T02:05:36;-2.70;99.90
10390;DHT22;5241;47.830;12.972;2024-01-30T02:08:02;-2.70;99.90
10390;DHT22;5241;47.830;12.972;2024-01-30T02:10:28;-2.70;99.90
10390;DHT22;5241;47.830;12.972;2024-01-30T02:12:54;-2.70;99.90
10390;DHT22;5241;47.830;12.972;2024-01-30T02:15:19;-2.70;99.90
10390;DHT22;5241;47.830;12.972;2024-01-30T02:17:45;-2.60;99.90
10390;DHT22;5241;47.830;12.972;2024-01-30T02:20:11;-2.60;99.90
10390;DHT22;5241;47.830;12.972;2024-01-30T02:22:37;-2.60;99.90
10390;DHT22;5241;47.830;12.972;2024-01-30T02:25:03;-2.60;99.90
10390;DHT22;5241;47.830;12.972;2024-01-30T02:27:29;-2.50;99.90
10390;DHT22;5241;47.830;12.972;2024-01-30T02:29:55;-2.70;99.90
10390;DHT22;5241;47.830;12.972;2024-01-30T02:32:20;-2.80;99.90
10390;DHT22;5241;47.830;12.972;2024-01-30T02:34:46;-2.80;99.90
10390;DHT22;5241;47.830;12.972;2024-01-30T02:37:11;-2.80;99.90
10390;DHT22;5241;47.830;12.972;2024-01-30T02:39:37;-2.80;99.90
10390;DHT22;5241;47.830;12.972;2024-01-30T02:42:02;-2.80;99.90
10390;DHT22;5241;47.830;12.972;2024-01-30T02:44:28;-2.80;99.90
10390;DHT22;5241;47.830;12.972;2024-01-30T02:46:53;-2.80;99.90
10390;DHT22;5241;47.830;12.972;2024-01-30T02:49:19;-2.80;99.90
10390;DHT22;5241;47.830;12.972;2024-01-30T02:51:45;-2.80;99.90
10390;DHT22;5241;47.830;12.972;2024-01-30T02:54:11;-2.80;99.90
10390;DHT22;5241;47.830;12.972;2024-01-30T02:56:36;-2.70;99.90
10390;DHT22;5241;47.830;12.972;2024-01-30T02:59:02;-2.80;99.90
10390;DHT22;5241;47.830;12.972;2024-01-30T03:01:27;-2.80;99.90
10390;DHT22;5241;47.830;12.972;2024-01-30T03:03:53;-2.80;99.90
10390;DHT22;5241;47.830;12.972;2024-01-30T03:06:18;-2.80;99.90
10390;DHT22;5241;47.830;12.972;2024-01-30T03:08:45;-2.80;99.90
10390;DHT22;5241;47.830;12.972;2024-01-30T03:11:11;-2.90;99.90
10390;DHT22;5241;47.830;12.972;2024-01-30T03:13:36;-2.90;99.90
10390;DHT22;5241;47.830;12.972;2024-01-30T03:16:02;-2.90;99.90
10390;DHT22;5241;47.830;12.972;2024-01-30T03:18:28;-2.90;99.90
10390;DHT22;5241;47.830;12.972;2024-01-30T03:20:53;-2.90;99.90
10390;DHT22;5241;47.830;12.972;2024-01-30T03:23:19;-3.00;99.90
10390;DHT22;5241;47.830;12.972;2024-01-30T03:25:44;-3.00;99.90
10390;DHT22;5241;47.830;12.972;2024-01-30T03:28:10;-2.90;99.90
10390;DHT22;5241;47.830;12.972;2024-01-30T03:30:36;-3.00;99.90
10390;DHT22;5241;47.830;12.972;2024-01-30T03:33:01;-3.00;99.90
10390;DHT22;5241;47.830;12.972;2024-01-30T03:35:27;-2.90;99.90
10390;DHT22;5241;47.830;12.972;2024-01-30T03:37:53;-2.90;99.90
10390;DHT22;5241;47.830;12.972;2024-01-30T03:40:18;-2.90;99.90
10390;DHT22;5241;47.830;12.972;2024-01-30T03:42:44;-2.90;99.90
10390;DHT22;5241;47.830;12.972;2024-01-30T03:45:09;-2.80;99.90
10390;DHT22;5241;47.830;12.972;2024-01-30T03:47:35;-2.90;99.90
10390;DHT22;5241;47.830;12.972;2024-01-30T03:50:00;-3.00;99.90
10390;DHT22;5241;47.830;12.972;2024-01-30T03:52:26;-2.90;99.90
10390;DHT22;5241;47.830;12.972;2024-01-30T03:54:51;-2.90;99.90
10390;DHT22;5241;47.830;12.972;2024-01-30T03:57:17;-2.90;99.90
10390;DHT22;5241;47.830;12.972;2024-01-30T03:59:43;-3.00;99.90
10390;DHT22;5241;47.830;12.972;2024-01-30T04:02:10;-2.90;99.90
10390;DHT22;5241;47.830;12.972;2024-01-30T04:04:36;-2.90;99.90
10390;DHT22;5241;47.830;12.972;2024-01-30T04:07:02;-2.90;99.90
10390;DHT22;5241;47.830;12.972;2024-01-30T04:09:27;-2.90;99.90
10390;DHT22;5241;47.830;12.972;2024-01-30T04:11:54;-2.90;99.90
10390;DHT22;5241;47.830;12.972;2024-01-30T04:14:19;-2.90;99.90
10390;DHT22;5241;47.830;12.972;2024-01-30T04:16:45;-3.00;99.90
10390;DHT22;5241;47.830;12.972;2024-01-30T04:19:10;-3.00;99.90
10390;DHT22;5241;47.830;12.972;2024-01-30T04:21:36;-3.00;99.90
10390;DHT22;5241;47.830;12.972;2024-01-30T04:24:01;-3.00;99.90
10390;DHT22;5241;47.830;12.972;2024-01-30T04:26:27;-3.00;99.90
10390;DHT22;5241;47.830;12.972;2024-01-30T04:28:53;-3.10;99.90
10390;DHT22;5241;47.830;12.972;2024-01-30T04:31:18;-3.00;99.90
10390;DHT22;5241;47.830;12.972;2024-01-30T04:33:44;-3.00;99.90
10390;DHT22;5241;47.830;12.972;2024-01-30T04:36:09;-2.90;99.90
10390;DHT22;5241;47.830;12.972;2024-01-30T04:38:38;-2.80;99.90
10390;DHT22;5241;47.830;12.972;2024-01-30T04:41:05;-2.80;99.90
10390;DHT22;5241;47.830;12.972;2024-01-30T04:43:30;-2.80;99.90
10390;DHT22;5241;47.830;12.972;2024-01-30T04:45:56;-2.80;99.90
10390;DHT22;5241;47.830;12.972;2024-01-30T04:48:21;-2.90;99.90
10390;DHT22;5241;47.830;12.972;2024-01-30T04:50:47;-2.90;99.90
10390;DHT22;5241;47.830;12.972;2024-01-30T04:53:13;-3.00;99.90
10390;DHT22;5241;47.830;12.972;2024-01-30T04:55:38;-3.00;99.90
10390;DHT22;5241;47.830;12.972;2024-01-30T04:58:04;-3.00;99.90
10390;DHT22;5241;47.830;12.972;2024-01-30T05:00:29;-3.10;99.90
10390;DHT22;5241;47.830;12.972;2024-01-30T05:02:55;-3.00;99.90
10390;DHT22;5241;47.830;12.972;2024-01-30T05:05:21;-3.10;99.90
10390;DHT22;5241;47.830;12.972;2024-01-30T05:07:47;-3.10;99.90
10390;DHT22;5241;47.830;12.972;2024-01-30T05:10:13;-3.10;99.90
10390;DHT22;5241;47.830;12.972;2024-01-30T05:12:39;-3.10;99.90
10390;DHT22;5241;47.830;12.972;2024-01-30T05:15:05;-3.00;99.90
10390;DHT22;5241;47.830;12.972;2024-01-30T05:17:31;-3.00;99.90
10390;DHT22;5241;47.830;12.972;2024-01-30T05:19:56;-2.90;99.90
10390;DHT22;5241;47.830;12.972;2024-01-30T05:22:22;-3.00;99.90
10390;DHT22;5241;47.830;12.972;2024-01-30T05:24:48;-3.00;99.90
10390;DHT22;5241;47.830;12.972;2024-01-30T05:27:13;-3.00;99.90
10390;DHT22;5241;47.830;12.972;2024-01-30T05:29:39;-3.00;99.90
10390;DHT22;5241;47.830;12.972;2024-01-30T05:32:06;-3.10;99.90
10390;DHT22;5241;47.830;12.972;2024-01-30T05:34:32;-3.10;99.90
10390;DHT22;5241;47.830;12.972;2024-01-30T05:36:57;-3.10;99.90
10390;DHT22;5241;47.830;12.972;2024-01-30T05:39:23;-3.10;99.90
10390;DHT22;5241;47.830;12.972;2024-01-30T05:41:48;-3.10;99.90
10390;DHT22;5241;47.830;12.972;2024-01-30T05:44:14;-3.10;99.90
10390;DHT22;5241;47.830;12.972;2024-01-30T05:46:39;-3.10;99.90
10390;DHT22;5241;47.830;12.972;2024-01-30T05:49:05;-3.10;99.90
10390;DHT22;5241;47.830;12.972;2024-01-30T05:51:31;-3.10;99.90
10390;DHT22;5241;47.830;12.972;2024-01-30T05:53:56;-3.00;99.90
10390;DHT22;5241;47.830;12.972;2024-01-30T05:56:22;-3.00;99.90
10390;DHT22;5241;47.830;12.972;2024-01-30T05:58:48;-3.10;99.90
10390;DHT22;5241;47.830;12.972;2024-01-30T06:01:15;-3.10;99.90
10390;DHT22;5241;47.830;12.972;2024-01-30T06:03:41;-3.10;99.90
10390;DHT22;5241;47.830;12.972;2024-01-30T06:06:08;-3.00;99.90
10390;DHT22;5241;47.830;12.972;2024-01-30T06:08:34;-3.10;99.90
10390;DHT22;5241;47.830;12.972;2024-01-30T06:11:00;-3.10;99.90
10390;DHT22;5241;47.830;12.972;2024-01-30T06:13:26;-3.10;99.90
10390;DHT22;5241;47.830;12.972;2024-01-30T06:15:52;-3.10;99.90
10390;DHT22;5241;47.830;12.972;2024-01-30T06:18:17;-3.10;99.90
10390;DHT22;5241;47.830;12.972;2024-01-30T06:20:43;-3.10;99.90
10390;DHT22;5241;47.830;12.972;2024-01-30T06:23:09;-3.00;99.90
10390;DHT22;5241;47.830;12.972;2024-01-30T06:25:34;-3.10;99.90
10390;DHT22;5241;47.830;12.972;2024-01-30T06:28:00;-3.10;99.90
10390;DHT22;5241;47.830;12.972;2024-01-30T06:30:25;-3.20;99.90
10390;DHT22;5241;47.830;12.972;2024-01-30T06:32:51;-3.10;99.90
10390;DHT22;5241;47.830;12.972;2024-01-30T06:35:17;-3.10;99.90
10390;DHT22;5241;47.830;12.972;2024-01-30T06:37:43;-3.10;99.90
10390;DHT22;5241;47.830;12.972;2024-01-30T06:40:09;-3.10;99.90
10390;DHT22;5241;47.830;12.972;2024-01-30T06:42:34;-3.10;99.90
10390;DHT22;5241;47.830;12.972;2024-01-30T06:45:00;-3.10;99.90
10390;DHT22;5241;47.830;12.972;2024-01-30T06:47:25;-3.20;99.90
10390;DHT22;5241;47.830;12.972;2024-01-30T06:49:51;-3.10;99.90
10390;DHT22;5241;47.830;12.972;2024-01-30T06:52:16;-3.00;99.90
10390;DHT22;5241;47.830;12.972;2024-01-30T06:54:42;-3.00;99.90
10390;DHT22;5241;47.830;12.972;2024-01-30T06:57:08;-3.10;99.90
10390;DHT22;5241;47.830;12.972;2024-01-30T06:59:37;-3.00;99.90
10390;DHT22;5241;47.830;12.972;2024-01-30T07:02:02;-3.00;99.90
10390;DHT22;5241;47.830;12.972;2024-01-30T07:04:28;-3.00;99.90
10390;DHT22;5241;47.830;12.972;2024-01-30T07:06:54;-3.00;99.90
10390;DHT22;5241;47.830;12.972;2024-01-30T07:09:19;-2.90;99.90
10390;DHT22;5241;47.830;12.972;2024-01-30T07:11:45;-2.90;99.90
10390;DHT22;5241;47.830;12.972;2024-01-30T07:14:10;-3.00;99.90
10390;DHT22;5241;47.830;12.972;2024-01-30T07:16:36;-3.00;99.90
10390;DHT22;5241;47.830;12.972;2024-01-30T07:19:02;-3.00;99.90
10390;DHT22;5241;47.830;12.972;2024-01-30T07:21:27;-3.00;99.90
10390;DHT22;5241;47.830;12.972;2024-01-30T07:23:57;-2.90;99.90
10390;DHT22;5241;47.830;12.972;2024-01-30T07:26:23;-2.90;99.90
10390;DHT22;5241;47.830;12.972;2024-01-30T07:28:48;-2.90;99.90
10390;DHT22;5241;47.830;12.972;2024-01-30T07:31:15;-2.90;99.90
10390;DHT22;5241;47.830;12.972;2024-01-30T07:33:41;-2.80;99.90
10390;DHT22;5241;47.830;12.972;2024-01-30T07:36:06;-2.80;99.90
10390;DHT22;5241;47.830;12.972;2024-01-30T07:38:32;-2.60;99.90
10390;DHT22;5241;47.830;12.972;2024-01-30T07:40:57;-2.60;99.90
10390;DHT22;5241;47.830;12.972;2024-01-30T07:43:23;-2.60;99.90
10390;DHT22;5241;47.830;12.972;2024-01-30T07:45:48;-2.60;99.90
10390;DHT22;5241;47.830;12.972;2024-01-30T07:48:14;-2.60;99.90
10390;DHT22;5241;47.830;12.972;2024-01-30T07:50:40;-2.50;99.90
10390;DHT22;5241;47.830;12.972;2024-01-30T07:53:05;-2.30;99.90
10390;DHT22;5241;47.830;12.972;2024-01-30T07:55:31;-2.30;99.90
10390;DHT22;5241;47.830;12.972;2024-01-30T07:57:58;-2.20;99.90
10390;DHT22;5241;47.830;12.972;2024-01-30T08:00:24;-2.20;99.90
10390;DHT22;5241;47.830;12.972;2024-01-30T08:02:50;-2.10;99.90
10390;DHT22;5241;47.830;12.972;2024-01-30T08:05:16;-2.00;99.90
10390;DHT22;5241;47.830;12.972;2024-01-30T08:07:41;-1.90;99.90
10390;DHT22;5241;47.830;12.972;2024-01-30T08:10:11;-1.80;99.90
10390;DHT22;5241;47.830;12.972;2024-01-30T08:12:37;-1.80;99.90
10390;DHT22;5241;47.830;12.972;2024-01-30T08:15:03;-1.80;99.90
10390;DHT22;5241;47.830;12.972;2024-01-30T08:17:29;-1.70;99.90
10390;DHT22;5241;47.830;12.972;2024-01-30T08:19:55;-1.70;99.90
10390;DHT22;5241;47.830;12.972;2024-01-30T08:22:20;-1.60;99.90
10390;DHT22;5241;47.830;12.972;2024-01-30T08:24:46;-1.60;99.90
10390;DHT22;5241;47.830;12.972;2024-01-30T08:27:11;-1.50;99.90
10390;DHT22;5241;47.830;12.972;2024-01-30T08:29:37;-1.40;99.90
10390;DHT22;5241;47.830;12.972;2024-01-30T08:32:05;-1.30;99.90
10390;DHT22;5241;47.830;12.972;2024-01-30T08:34:30;-1.20;99.90
10390;DHT22;5241;47.830;12.972;2024-01-30T08:36:56;-1.10;99.90
10390;DHT22;5241;47.830;12.972;2024-01-30T08:39:21;-1.00;99.90
10390;DHT22;5241;47.830;12.972;2024-01-30T08:41:47;-0.90;99.90
10390;DHT22;5241;47.830;12.972;2024-01-30T08:44:12;-0.80;99.90
10390;DHT22;5241;47.830;12.972;2024-01-30T08:46:38;-0.50;99.90
10390;DHT22;5241;47.830;12.972;2024-01-30T08:49:04;-0.40;99.90
10390;DHT22;5241;47.830;12.972;2024-01-30T08:51:30;-0.30;99.90
10390;DHT22;5241;47.830;12.972;2024-01-30T08:53:55;-0.20;99.90
10390;DHT22;5241;47.830;12.972;2024-01-30T08:56:21;0.10;99.90
10390;DHT22;5241;47.830;12.972;2024-01-30T08:58:47;0.20;99.90
10390;DHT22;5241;47.830;12.972;2024-01-30T09:01:12;0.40;99.90
10390;DHT22;5241;47.830;12.972;2024-01-30T09:03:38;0.50;99.90
10390;DHT22;5241;47.830;12.972;2024-01-30T09:06:09;0.60;99.90
10390;DHT22;5241;47.830;12.972;2024-01-30T09:08:35;0.60;99.90
10390;DHT22;5241;47.830;12.972;2024-01-30T09:11:01;0.50;99.90
10390;DHT22;5241;47.830;12.972;2024-01-30T09:13:27;0.80;99.90
10390;DHT22;5241;47.830;12.972;2024-01-30T09:15:53;1.00;99.90
10390;DHT22;5241;47.830;12.972;2024-01-30T09:18:18;1.20;99.90
10390;DHT22;5241;47.830;12.972;2024-01-30T09:20:44;1.30;99.90
10390;DHT22;5241;47.830;12.972;2024-01-30T09:23:12;1.30;99.90
10390;DHT22;5241;47.830;12.972;2024-01-30T09:25:38;1.40;99.90
10390;DHT22;5241;47.830;12.972;2024-01-30T09:28:04;1.50;99.90
10390;DHT22;5241;47.830;12.972;2024-01-30T09:30:30;1.70;99.90
10390;DHT22;5241;47.830;12.972;2024-01-30T09:32:55;1.80;99.90
10390;DHT22;5241;47.830;12.972;2024-01-30T09:35:21;1.90;99.90
10390;DHT22;5241;47.830;12.972;2024-01-30T09:37:46;2.00;99.90
10390;DHT22;5241;47.830;12.972;2024-01-30T09:40:12;2.20;99.90
10390;DHT22;5241;47.830;12.972;2024-01-30T09:42:38;2.60;99.90
10390;DHT22;5241;47.830;12.972;2024-01-30T09:45:04;3.00;99.90
10390;DHT22;5241;47.830;12.972;2024-01-30T09:47:44;3.40;99.90
10390;DHT22;5241;47.830;12.972;2024-01-30T09:50:11;3.90;99.90
10390;DHT22;5241;47.830;12.972;2024-01-30T09:52:36;4.10;99.90
10390;DHT22;5241;47.830;12.972;2024-01-30T09:55:03;4.40;99.90
10390;DHT22;5241;47.830;12.972;2024-01-30T09:57:29;4.80;99.90
10390;DHT22;5241;47.830;12.972;2024-01-30T09:59:54;5.40;99.90
10390;DHT22;5241;47.830;12.972;2024-01-30T10:02:20;5.80;99.90
10390;DHT22;5241;47.830;12.972;2024-01-30T10:04:50;6.10;99.90
10390;DHT22;5241;47.830;12.972;2024-01-30T10:07:17;6.80;99.90
10390;DHT22;5241;47.830;12.972;2024-01-30T10:09:43;7.30;99.90
10390;DHT22;5241;47.830;12.972;2024-01-30T10:12:12;7.80;99.90
10390;DHT22;5241;47.830;12.972;2024-01-30T10:14:38;8.10;99.90
10390;DHT22;5241;47.830;12.972;2024-01-30T10:17:04;8.50;99.30
10390;DHT22;5241;47.830;12.972;2024-01-30T10:19:31;8.90;99.40
10390;DHT22;5241;47.830;12.972;2024-01-30T10:21:56;9.00;97.80
10390;DHT22;5241;47.830;12.972;2024-01-30T10:24:26;9.40;96.80
10390;DHT22;5241;47.830;12.972;2024-01-30T10:26:51;9.50;97.50
10390;DHT22;5241;47.830;12.972;2024-01-30T10:29:18;9.60;95.80
10390;DHT22;5241;47.830;12.972;2024-01-30T10:31:43;9.90;94.40
10390;DHT22;5241;47.830;12.972;2024-01-30T10:34:09;10.20;91.40
10390;DHT22;5241;47.830;12.972;2024-01-30T10:36:39;10.30;91.10
10390;DHT22;5241;47.830;12.972;2024-01-30T10:39:08;10.50;90.00
10390;DHT22;5241;47.830;12.972;2024-01-30T10:41:39;10.60;91.10
10390;DHT22;5241;47.830;12.972;2024-01-30T10:44:11;10.70;92.20
10390;DHT22;5241;47.830;12.972;2024-01-30T10:46:42;10.90;91.40
10390;DHT22;5241;47.830;12.972;2024-01-30T10:49:11;11.30;89.70
10390;DHT22;5241;47.830;12.972;2024-01-30T10:51:38;11.60;85.90
10390;DHT22;5241;47.830;12.972;2024-01-30T10:54:05;11.50;86.90
10390;DHT22;5241;47.830;12.972;2024-01-30T10:56:32;11.40;84.50
10390;DHT22;5241;47.830;12.972;2024-01-30T10:58:59;11.30;88.10
10390;DHT22;5241;47.830;12.972;2024-01-30T11:01:26;11.30;90.50
10390;DHT22;5241;47.830;12.972;2024-01-30T11:03:53;10.90;92.70
10390;DHT22;5241;47.830;12.972;2024-01-30T11:06:23;10.80;93.20
10390;DHT22;5241;47.830;12.972;2024-01-30T11:09:05;11.20;93.10
10390;DHT22;5241;47.830;12.972;2024-01-30T11:11:59;11.20;92.90
10390;DHT22;5241;47.830;12.972;2024-01-30T11:14:26;11.20;92.40
10390;DHT22;5241;47.830;12.972;2024-01-30T11:16:52;10.40;93.20
10390;DHT22;5241;47.830;12.972;2024-01-30T11:19:30;10.30;94.00
10390;DHT22;5241;47.830;12.972;2024-01-30T11:21:56;10.70;93.50
10390;DHT22;5241;47.830;12.972;2024-01-30T11:24:23;10.60;93.60
10390;DHT22;5241;47.830;12.972;2024-01-30T11:26:49;10.80;93.30
10390;DHT22;5241;47.830;12.972;2024-01-30T11:29:19;10.90;92.80
10390;DHT22;5241;47.830;12.972;2024-01-30T11:31:58;10.80;93.10
10390;DHT22;5241;47.830;12.972;2024-01-30T11:34:24;10.80;93.10
10390;DHT22;5241;47.830;12.972;2024-01-30T11:36:56;10.70;93.30
10390;DHT22;5241;47.830;12.972;2024-01-30T11:39:29;10.70;92.90
10390;DHT22;5241;47.830;12.972;2024-01-30T11:41:55;10.70;92.60
10390;DHT22;5241;47.830;12.972;2024-01-30T11:44:21;11.00;91.90
10390;DHT22;5241;47.830;12.972;2024-01-30T11:46:51;10.90;92.00
10390;DHT22;5241;47.830;12.972;2024-01-30T11:49:17;10.80;93.00
10390;DHT22;5241;47.830;12.972;2024-01-30T11:51:45;10.70;92.70
10390;DHT22;5241;47.830;12.972;2024-01-30T11:54:11;10.70;91.50
10390;DHT22;5241;47.830;12.972;2024-01-30T11:56:37;10.80;92.40
10390;DHT22;5241;47.830;12.972;2024-01-30T11:59:04;11.00;91.20
10390;DHT22;5241;47.830;12.972;2024-01-30T12:01:31;11.20;89.60
10390;DHT22;5241;47.830;12.972;2024-01-30T12:03:58;11.40;90.60
10390;DHT22;5241;47.830;12.972;2024-01-30T12:06:23;11.00;91.40
10390;DHT22;5241;47.830;12.972;2024-01-30T12:09:02;10.90;91.50
10390;DHT22;5241;47.830;12.972;2024-01-30T12:11:48;10.90;92.00
10390;DHT22;5241;47.830;12.972;2024-01-30T12:14:16;10.90;92.00
10390;DHT22;5241;47.830;12.972;2024-01-30T12:16:42;10.90;91.80
10390;DHT22;5241;47.830;12.972;2024-01-30T12:19:08;11.10;90.60
10390;DHT22;5241;47.830;12.972;2024-01-30T12:21:34;11.00;90.30
10390;DHT22;5241;47.830;12.972;2024-01-30T12:24:00;11.00;90.60
10390;DHT22;5241;47.830;12.972;2024-01-30T12:26:26;10.90;91.60
10390;DHT22;5241;47.830;12.972;2024-01-30T12:28:55;10.80;90.60
10390;DHT22;5241;47.830;12.972;2024-01-30T12:31:32;10.90;90.20
10390;DHT22;5241;47.830;12.972;2024-01-30T12:33:59;10.90;91.10
10390;DHT22;5241;47.830;12.972;2024-01-30T12:36:25;11.00;89.10
10390;DHT22;5241;47.830;12.972;2024-01-30T12:38:51;11.00;90.70
10390;DHT22;5241;47.830;12.972;2024-01-30T12:41:17;10.90;90.30
10390;DHT22;5241;47.830;12.972;2024-01-30T12:43:43;10.90;90.70
10390;DHT22;5241;47.830;12.972;2024-01-30T12:46:08;10.70;87.60
10390;DHT22;5241;47.830;12.972;2024-01-30T12:48:34;10.70;90.00
10390;DHT22;5241;47.830;12.972;2024-01-30T12:51:00;10.70;89.70
10390;DHT22;5241;47.830;12.972;2024-01-30T12:53:25;10.80;88.10
10390;DHT22;5241;47.830;12.972;2024-01-30T12:55:51;10.90;88.50
10390;DHT22;5241;47.830;12.972;2024-01-30T12:58:16;10.70;89.70
10390;DHT22;5241;47.830;12.972;2024-01-30T13:00:42;10.70;90.30
10390;DHT22;5241;47.830;12.972;2024-01-30T13:03:09;10.80;88.60
10390;DHT22;5241;47.830;12.972;2024-01-30T13:05:35;10.70;90.80
10390;DHT22;5241;47.830;12.972;2024-01-30T13:08:01;10.60;89.00
10390;DHT22;5241;47.830;12.972;2024-01-30T13:10:26;10.60;89.70
10390;DHT22;5241;47.830;12.972;2024-01-30T13:12:52;10.50;90.90
10390;DHT22;5241;47.830;12.972;2024-01-30T13:15:18;10.40;90.10
10390;DHT22;5241;47.830;12.972;2024-01-30T13:17:44;10.50;90.10
10390;DHT22;5241;47.830;12.972;2024-01-30T13:20:12;10.50;90.40
10390;DHT22;5241;47.830;12.972;2024-01-30T13:22:39;10.20;91.00
10390;DHT22;5241;47.830;12.972;2024-01-30T13:25:05;10.20;90.80
10390;DHT22;5241;47.830;12.972;2024-01-30T13:27:31;10.20;91.00
10390;DHT22;5241;47.830;12.972;2024-01-30T13:29:56;10.40;89.60
10390;DHT22;5241;47.830;12.972;2024-01-30T13:32:22;10.40;89.60
10390;DHT22;5241;47.830;12.972;2024-01-30T13:34:47;10.10;91.70
10390;DHT22;5241;47.830;12.972;2024-01-30T13:37:13;10.00;92.00
10390;DHT22;5241;47.830;12.972;2024-01-30T13:39:38;10.10;91.80
10390;DHT22;5241;47.830;12.972;2024-01-30T13:42:04;10.20;92.60
10390;DHT22;5241;47.830;12.972;2024-01-30T13:44:30;10.20;92.20
10390;DHT22;5241;47.830;12.972;2024-01-30T13:46:55;10.30;91.50
10390;DHT22;5241;47.830;12.972;2024-01-30T13:49:21;10.30;91.10
10390;DHT22;5241;47.830;12.972;2024-01-30T13:51:47;10.40;90.50
10390;DHT22;5241;47.830;12.972;2024-01-30T13:54:12;10.40;90.50
10390;DHT22;5241;47.830;12.972;2024-01-30T13:56:38;10.30;91.30
10390;DHT22;5241;47.830;12.972;2024-01-30T13:59:04;10.10;90.70
10390;DHT22;5241;47.830;12.972;2024-01-30T14:01:31;10.20;90.90
10390;DHT22;5241;47.830;12.972;2024-01-30T14:03:57;10.20;91.20
10390;DHT22;5241;47.830;12.972;2024-01-30T14:06:22;10.10;91.80
10390;DHT22;5241;47.830;12.972;2024-01-30T14:08:48;10.00;91.80
10390;DHT22;5241;47.830;12.972;2024-01-30T14:11:13;10.00;91.40
10390;DHT22;5241;47.830;12.972;2024-01-30T14:13:39;10.00;91.80
10390;DHT22;5241;47.830;12.972;2024-01-30T14:16:05;9.90;92.90
10390;DHT22;5241;47.830;12.972;2024-01-30T14:18:30;9.80;93.60
10390;DHT22;5241;47.830;12.972;2024-01-30T14:20:56;9.70;93.80
10390;DHT22;5241;47.830;12.972;2024-01-30T14:23:21;9.70;94.30
10390;DHT22;5241;47.830;12.972;2024-01-30T14:25:47;9.60;94.60
10390;DHT22;5241;47.830;12.972;2024-01-30T14:28:13;9.60;94.70
10390;DHT22;5241;47.830;12.972;2024-01-30T14:30:38;9.50;94.80
10390;DHT22;5241;47.830;12.972;2024-01-30T14:33:04;9.50;94.60
10390;DHT22;5241;47.830;12.972;2024-01-30T14:35:29;9.50;94.80
10390;DHT22;5241;47.830;12.972;2024-01-30T14:37:55;9.40;94.70
10390;DHT22;5241;47.830;12.972;2024-01-30T14:40:21;9.50;95.00
10390;DHT22;5241;47.830;12.972;2024-01-30T14:42:46;9.40;94.80
10390;DHT22;5241;47.830;12.972;2024-01-30T14:45:12;9.40;95.00
10390;DHT22;5241;47.830;12.972;2024-01-30T14:47:38;9.40;95.20
10390;DHT22;5241;47.830;12.972;2024-01-30T14:50:04;9.30;95.20
10390;DHT22;5241;47.830;12.972;2024-01-30T14:52:31;9.20;95.30
10390;DHT22;5241;47.830;12.972;2024-01-30T14:54:57;9.10;95.00
10390;DHT22;5241;47.830;12.972;2024-01-30T14:57:27;9.10;94.80
10390;DHT22;5241;47.830;12.972;2024-01-30T14:59:53;9.00;94.30
10390;DHT22;5241;47.830;12.972;2024-01-30T15:02:18;9.00;94.20
10390;DHT22;5241;47.830;12.972;2024-01-30T15:04:44;8.90;94.30
10390;DHT22;5241;47.830;12.972;2024-01-30T15:07:09;8.80;94.80
10390;DHT22;5241;47.830;12.972;2024-01-30T15:09:35;8.70;95.00
10390;DHT22;5241;47.830;12.972;2024-01-30T15:12:00;8.60;95.10
10390;DHT22;5241;47.830;12.972;2024-01-30T15:14:26;8.60;95.10
10390;DHT22;5241;47.830;12.972;2024-01-30T15:16:51;8.60;95.40
10390;DHT22;5241;47.830;12.972;2024-01-30T15:19:17;8.60;95.60
10390;DHT22;5241;47.830;12.972;2024-01-30T15:21:43;8.40;96.00
10390;DHT22;5241;47.830;12.972;2024-01-30T15:24:08;8.30;96.30
10390;DHT22;5241;47.830;12.972;2024-01-30T15:26:34;8.10;96.70